Western Clipper — CFN4802 — position and weather

sailwx.info

Track history (hours):
 
Tides and Currents Weather Stations Pressure Air Temp Water Temp Dewpoint Dewpoint Depression Visibility Wind Speed Wind Dir Waves Ship Positions

Western Clipper

Last reported at 2017-Dec-11 06:41 UTC. Time now 2017-Dec-11 07:36 UTC.
Position N 34°15' W 119°16'.

Length 18 m.

Type: Fishing. MMSI: 316002732.

Date/timePositionNaut miles runAvg speedWind from/ knotsBaromVisibWave heightAir tempDewpointWater temp
2017-Dec-11 06:41N 34°15' W 119°16'0 0.0
2017-Dec-11 06:14N 34°15' W 119°16'0 0.0
2017-Dec-11 03:29N 34°15' W 119°16'0 0.0
2017-Dec-11 01:02N 34°15' W 119°16'0 0.0
2017-Dec-10 18:35N 34°15' W 119°16'0 0.0
2017-Dec-10 18:08N 34°15' W 119°16'0 0.0
2017-Dec-10 17:53N 34°15' W 119°16'0 0.0
2017-Dec-10 13:59N 34°15' W 119°16'0 0.0
2017-Dec-10 11:35N 34°15' W 119°16'0 0.0
2017-Dec-10 11:26N 34°15' W 119°16'0 0.0
2017-Dec-10 09:38N 34°15' W 119°16'0 0.0
2017-Dec-10 09:29N 34°15' W 119°16'0 0.0
2017-Dec-10 08:53N 34°15' W 119°16'0 0.0
2017-Dec-10 08:11N 34°15' W 119°16'0 0.0
2017-Dec-10 03:38N 34°15' W 119°16'0 0.0
2017-Dec-10 03:08N 34°15' W 119°16'0 0.0
2017-Dec-10 02:53N 34°15' W 119°16'0 0.0
2017-Dec-10 00:47N 34°15' W 119°16'0 0.0
2017-Dec-09 17:38N 34°15' W 119°16'0 0.0
2017-Dec-09 17:17N 34°15' W 119°16'0 0.0
2017-Dec-09 16:56N 34°15' W 119°16'0 0.0
2017-Dec-09 16:29N 34°15' W 119°16'0 0.0
2017-Dec-09 15:47N 34°15' W 119°16'0 0.0
2017-Dec-09 14:36N 34°15' W 119°16'0 2.9
2017-Dec-09 14:30N 34°15' W 119°16'4 6.8
2017-Dec-09 13:58N 34°15' W 119°20'4 8.6
2017-Dec-09 13:28N 34°16' W 119°25'5 8.6
2017-Dec-09 12:54N 34°17' W 119°31'4 8.9
2017-Dec-09 12:28N 34°18' W 119°36'5 8.7
2017-Dec-09 11:54N 34°19' W 119°42'3 8.5
2017-Dec-09 11:30N 34°19' W 119°46'4 8.3
2017-Dec-09 10:59N 34°20' W 119°51'4 8.3
2017-Dec-09 10:30N 34°21' W 119°55'4 8.2
2017-Dec-09 09:58N 34°22' W 120°01'4 7.9
2017-Dec-09 09:27N 34°23' W 120°05'4 7.9
2017-Dec-09 09:00N 34°23' W 120°10'4 7.8
2017-Dec-09 08:30N 34°24' W 120°14'4 8.0
2017-Dec-09 08:00N 34°24' W 120°19'4 8.2
2017-Dec-09 07:28N 34°25' W 120°24'4 8.1
2017-Dec-09 06:58N 34°26' W 120°29'4 8.4
2017-Dec-09 06:29N 34°29' W 120°33'4 8.6
2017-Dec-09 06:00N 34°31' W 120°37'4 8.5
2017-Dec-09 05:30N 34°34' W 120°41'4 8.4
2017-Dec-09 05:00N 34°38' W 120°43'4 8.4
2017-Dec-09 04:30N 34°42' W 120°45'4 8.4
2017-Dec-09 04:00N 34°46' W 120°47'4 8.6
2017-Dec-09 03:30N 34°50' W 120°49'4 8.6
2017-Dec-09 03:00N 34°53' W 120°52'5 9.1
2017-Dec-09 02:31N 34°57' W 120°54'5 8.9
2017-Dec-09 02:00N 35°01' W 120°57'4 8.5
2017-Dec-09 01:30N 35°05' W 120°60'7 8.7
2017-Dec-09 00:39N 35°11' W 121°04'1 8.9
2017-Dec-09 00:29N 35°13' W 121°05'4 9.0
2017-Dec-09 00:00N 35°16' W 121°07'14 8.8
2017-Dec-08 22:22N 35°29' W 121°16'3 7.8
2017-Dec-08 21:58N 35°32' W 121°17'20 7.9
2017-Dec-08 19:26N 35°49' W 121°30'4 9.0
2017-Dec-08 19:00N 35°52' W 121°34'4 8.6
2017-Dec-08 18:30N 35°55' W 121°37'4 7.5
2017-Dec-08 18:00N 35°58' W 121°40'4 7.3
2017-Dec-08 17:30N 36°01' W 121°43'4 7.3
2017-Dec-08 17:00N 36°04' W 121°46'4 7.6
2017-Dec-08 16:30N 36°07' W 121°48'4 8.0
2017-Dec-08 16:00N 36°10' W 121°51'4 8.4
2017-Dec-08 15:30N 36°14' W 121°54'4 8.6
2017-Dec-08 15:00N 36°17' W 121°57'4 8.2
2017-Dec-08 14:30N 36°21' W 121°59'4 8.0
2017-Dec-08 14:00N 36°25' W 122°00'4 7.8
2017-Dec-08 13:30N 36°29' W 122°01'4 7.6
2017-Dec-08 13:00N 36°32' W 122°03'4 7.7
2017-Dec-08 12:30N 36°36' W 122°05'4 8.2
2017-Dec-08 12:00N 36°40' W 122°07'4 7.9
2017-Dec-08 11:29N 36°43' W 122°09'4 7.8
2017-Dec-08 10:59N 36°47' W 122°12'68 7.8
2017-Dec-08 02:17N 37°46' W 122°53'2 7.9
2017-Dec-08 01:59N 37°48' W 122°55'4 8.0
2017-Dec-08 01:30N 37°51' W 122°57'4 8.0
2017-Dec-08 00:58N 37°55' W 123°00'4 8.5
2017-Dec-08 00:30N 37°58' W 123°02'4 8.5
2017-Dec-08 00:00N 38°02' W 123°05'4 8.2
2017-Dec-07 23:29N 38°05' W 123°08'4 8.0
2017-Dec-07 22:59N 38°09' W 123°11'4 7.9
2017-Dec-07 22:29N 38°12' W 123°13'4 8.0
2017-Dec-07 22:01N 38°16' W 123°15'4 8.0
2017-Dec-07 21:30N 38°19' W 123°18'4 7.8
2017-Dec-07 21:00N 38°23' W 123°20'4 7.7
2017-Dec-07 20:30N 38°26' W 123°23'4 7.6
2017-Dec-07 19:57N 38°29' W 123°26'5 7.7
2017-Dec-07 19:16N 38°34' W 123°29'  
2017-Dec-04 10:24N 48°23' W 124°36'0 0.0
2017-Dec-04 10:00N 48°23' W 124°36'0 0.0
2017-Dec-04 09:30N 48°23' W 124°36'0 0.0
2017-Dec-04 09:00N 48°23' W 124°36'0 0.0
2017-Dec-04 08:30N 48°23' W 124°36'0 0.0
2017-Dec-04 08:00N 48°23' W 124°36'0 0.0
2017-Dec-04 07:30N 48°23' W 124°36'0 0.0
2017-Dec-04 07:00N 48°23' W 124°36'0 0.0
2017-Dec-04 06:30N 48°23' W 124°36'1 1.7
2017-Dec-04 06:00N 48°23' W 124°35'1 2.0
2017-Dec-04 05:30N 48°23' W 124°34'5 9.0
2017-Dec-04 04:59N 48°21' W 124°28'34 9.7
2017-Dec-04 01:28N 48°12' W 123°38'510.0
2017-Dec-04 00:58N 48°12' W 123°30'4 9.0
2017-Dec-04 00:30N 48°12' W 123°24'4 8.1
2017-Dec-04 00:00N 48°12' W 123°18'4 7.9
2017-Dec-03 23:29N 48°12' W 123°12'31 6.3
2017-Dec-03 18:32N 47°55' W 122°32'0 8.6
2017-Dec-03 18:29N 47°55' W 122°32'4 8.4
2017-Dec-03 18:00N 47°51' W 122°30'4 8.2
2017-Dec-03 17:30N 47°48' W 122°28'4 7.4
2017-Dec-03 17:00N 47°44' W 122°28'4 8.0
2017-Dec-03 16:30N 47°40' W 122°28'4 7.8
2017-Dec-03 16:01N 47°36' W 122°28'4 8.0
2017-Dec-03 15:30N 47°32' W 122°28'4 9.0
2017-Dec-03 15:00N 47°28' W 122°31'5 8.7
2017-Dec-03 14:26N 47°23' W 122°32'4 8.4
2017-Dec-03 14:00N 47°20' W 122°34'0 0.0
2017-Dec-02 00:25N 47°20' W 122°34'3 7.9
2017-Dec-02 00:00N 47°18' W 122°29'4 1.3
2017-Dec-01 21:14N 47°15' W 122°26'2 7.5
2017-Dec-01 21:00N 47°17' W 122°28'4 7.7
2017-Dec-01 20:29N 47°19' W 122°32'  
Track history (hours):
 
Tides and Currents Weather Stations Pressure Air Temp Water Temp Dewpoint Dewpoint Depression Visibility Wind Speed Wind Dir Waves Ship Positions

Western Clipper

Last reported at 2017-Dec-11 06:41 UTC. Time now 2017-Dec-11 07:36 UTC.
Position N 34°15' W 119°16'.

Length 18 m.

Type: Fishing. MMSI: 316002732.

Date/timePositionNaut miles runAvg speedWind from/ knotsBaromVisibWave heightAir tempDewpointWater temp
2017-Dec-11 06:41N 34°15' W 119°16'0 0.0
2017-Dec-11 06:14N 34°15' W 119°16'0 0.0
2017-Dec-11 03:29N 34°15' W 119°16'0 0.0
2017-Dec-11 01:02N 34°15' W 119°16'0 0.0
2017-Dec-10 18:35N 34°15' W 119°16'0 0.0
2017-Dec-10 18:08N 34°15' W 119°16'0 0.0
2017-Dec-10 17:53N 34°15' W 119°16'0 0.0
2017-Dec-10 13:59N 34°15' W 119°16'0 0.0
2017-Dec-10 11:35N 34°15' W 119°16'0 0.0
2017-Dec-10 11:26N 34°15' W 119°16'0 0.0
2017-Dec-10 09:38N 34°15' W 119°16'0 0.0
2017-Dec-10 09:29N 34°15' W 119°16'0 0.0
2017-Dec-10 08:53N 34°15' W 119°16'0 0.0
2017-Dec-10 08:11N 34°15' W 119°16'0 0.0
2017-Dec-10 03:38N 34°15' W 119°16'0 0.0
2017-Dec-10 03:08N 34°15' W 119°16'0 0.0
2017-Dec-10 02:53N 34°15' W 119°16'0 0.0
2017-Dec-10 00:47N 34°15' W 119°16'0 0.0
2017-Dec-09 17:38N 34°15' W 119°16'0 0.0
2017-Dec-09 17:17N 34°15' W 119°16'0 0.0
2017-Dec-09 16:56N 34°15' W 119°16'0 0.0
2017-Dec-09 16:29N 34°15' W 119°16'0 0.0
2017-Dec-09 15:47N 34°15' W 119°16'0 0.0
2017-Dec-09 14:36N 34°15' W 119°16'0 2.9
2017-Dec-09 14:30N 34°15' W 119°16'4 6.8
2017-Dec-09 13:58N 34°15' W 119°20'4 8.6
2017-Dec-09 13:28N 34°16' W 119°25'5 8.6
2017-Dec-09 12:54N 34°17' W 119°31'4 8.9
2017-Dec-09 12:28N 34°18' W 119°36'5 8.7
2017-Dec-09 11:54N 34°19' W 119°42'3 8.5
2017-Dec-09 11:30N 34°19' W 119°46'4 8.3
2017-Dec-09 10:59N 34°20' W 119°51'4 8.3
2017-Dec-09 10:30N 34°21' W 119°55'4 8.2
2017-Dec-09 09:58N 34°22' W 120°01'4 7.9
2017-Dec-09 09:27N 34°23' W 120°05'4 7.9
2017-Dec-09 09:00N 34°23' W 120°10'4 7.8
2017-Dec-09 08:30N 34°24' W 120°14'4 8.0
2017-Dec-09 08:00N 34°24' W 120°19'4 8.2
2017-Dec-09 07:28N 34°25' W 120°24'4 8.1
2017-Dec-09 06:58N 34°26' W 120°29'4 8.4
2017-Dec-09 06:29N 34°29' W 120°33'4 8.6
2017-Dec-09 06:00N 34°31' W 120°37'4 8.5
2017-Dec-09 05:30N 34°34' W 120°41'4 8.4
2017-Dec-09 05:00N 34°38' W 120°43'4 8.4
2017-Dec-09 04:30N 34°42' W 120°45'4 8.4
2017-Dec-09 04:00N 34°46' W 120°47'4 8.6
2017-Dec-09 03:30N 34°50' W 120°49'4 8.6
2017-Dec-09 03:00N 34°53' W 120°52'5 9.1
2017-Dec-09 02:31N 34°57' W 120°54'5 8.9
2017-Dec-09 02:00N 35°01' W 120°57'4 8.5
2017-Dec-09 01:30N 35°05' W 120°60'7 8.7
2017-Dec-09 00:39N 35°11' W 121°04'1 8.9
2017-Dec-09 00:29N 35°13' W 121°05'4 9.0
2017-Dec-09 00:00N 35°16' W 121°07'14 8.8
2017-Dec-08 22:22N 35°29' W 121°16'3 7.8
2017-Dec-08 21:58N 35°32' W 121°17'20 7.9
2017-Dec-08 19:26N 35°49' W 121°30'4 9.0
2017-Dec-08 19:00N 35°52' W 121°34'4 8.6
2017-Dec-08 18:30N 35°55' W 121°37'4 7.5
2017-Dec-08 18:00N 35°58' W 121°40'4 7.3
2017-Dec-08 17:30N 36°01' W 121°43'4 7.3
2017-Dec-08 17:00N 36°04' W 121°46'4 7.6
2017-Dec-08 16:30N 36°07' W 121°48'4 8.0
2017-Dec-08 16:00N 36°10' W 121°51'4 8.4
2017-Dec-08 15:30N 36°14' W 121°54'4 8.6
2017-Dec-08 15:00N 36°17' W 121°57'4 8.2
2017-Dec-08 14:30N 36°21' W 121°59'4 8.0
2017-Dec-08 14:00N 36°25' W 122°00'4 7.8
2017-Dec-08 13:30N 36°29' W 122°01'4 7.6
2017-Dec-08 13:00N 36°32' W 122°03'4 7.7
2017-Dec-08 12:30N 36°36' W 122°05'4 8.2
2017-Dec-08 12:00N 36°40' W 122°07'4 7.9
2017-Dec-08 11:29N 36°43' W 122°09'4 7.8
2017-Dec-08 10:59N 36°47' W 122°12'68 7.8
2017-Dec-08 02:17N 37°46' W 122°53'2 7.9
2017-Dec-08 01:59N 37°48' W 122°55'4 8.0
2017-Dec-08 01:30N 37°51' W 122°57'4 8.0
2017-Dec-08 00:58N 37°55' W 123°00'4 8.5
2017-Dec-08 00:30N 37°58' W 123°02'4 8.5
2017-Dec-08 00:00N 38°02' W 123°05'4 8.2
2017-Dec-07 23:29N 38°05' W 123°08'4 8.0
2017-Dec-07 22:59N 38°09' W 123°11'4 7.9
2017-Dec-07 22:29N 38°12' W 123°13'4 8.0
2017-Dec-07 22:01N 38°16' W 123°15'4 8.0
2017-Dec-07 21:30N 38°19' W 123°18'4 7.8
2017-Dec-07 21:00N 38°23' W 123°20'4 7.7
2017-Dec-07 20:30N 38°26' W 123°23'4 7.6
2017-Dec-07 19:57N 38°29' W 123°26'5 7.7
2017-Dec-07 19:16N 38°34' W 123°29'  
2017-Dec-04 10:24N 48°23' W 124°36'0 0.0
2017-Dec-04 10:00N 48°23' W 124°36'0 0.0
2017-Dec-04 09:30N 48°23' W 124°36'0 0.0
2017-Dec-04 09:00N 48°23' W 124°36'0 0.0
2017-Dec-04 08:30N 48°23' W 124°36'0 0.0
2017-Dec-04 08:00N 48°23' W 124°36'0 0.0
2017-Dec-04 07:30N 48°23' W 124°36'0 0.0
2017-Dec-04 07:00N 48°23' W 124°36'0 0.0
2017-Dec-04 06:30N 48°23' W 124°36'1 1.7
2017-Dec-04 06:00N 48°23' W 124°35'1 2.0
2017-Dec-04 05:30N 48°23' W 124°34'5 9.0
2017-Dec-04 04:59N 48°21' W 124°28'34 9.7
2017-Dec-04 01:28N 48°12' W 123°38'510.0
2017-Dec-04 00:58N 48°12' W 123°30'4 9.0
2017-Dec-04 00:30N 48°12' W 123°24'4 8.1
2017-Dec-04 00:00N 48°12' W 123°18'4 7.9
2017-Dec-03 23:29N 48°12' W 123°12'31 6.3
2017-Dec-03 18:32N 47°55' W 122°32'0 8.6
2017-Dec-03 18:29N 47°55' W 122°32'4 8.4
2017-Dec-03 18:00N 47°51' W 122°30'4 8.2
2017-Dec-03 17:30N 47°48' W 122°28'4 7.4
2017-Dec-03 17:00N 47°44' W 122°28'4 8.0
2017-Dec-03 16:30N 47°40' W 122°28'4 7.8
2017-Dec-03 16:01N 47°36' W 122°28'4 8.0
2017-Dec-03 15:30N 47°32' W 122°28'4 9.0
2017-Dec-03 15:00N 47°28' W 122°31'5 8.7
2017-Dec-03 14:26N 47°23' W 122°32'4 8.4
2017-Dec-03 14:00N 47°20' W 122°34'0 0.0
2017-Dec-02 00:25N 47°20' W 122°34'3 7.9
2017-Dec-02 00:00N 47°18' W 122°29'4 1.3
2017-Dec-01 21:14N 47°15' W 122°26'2 7.5
2017-Dec-01 21:00N 47°17' W 122°28'4 7.7
2017-Dec-01 20:29N 47°19' W 122°32'  

Dump ship's entire track history